Terminal Aerodrome Forecast
Issued by NWS

Home | Current Version | Previous Version | Text Only | Print | Product List | Glossary On
Versions: 1 2 3 4 5 6 7 8 9 10 11 12 13 14 15 16 17 18 19 20 21 22 23 24
000
FTUS45 KABQ 222344 RRA
TAFTCC
TAF
KTCC 222344Z 2300/2324 19012KT P6SM FEW040
     FM230300 16015KT P6SM VCSH SCT050 BKN120
      TEMPO 2305/2308 VRB20G30KT 2SM TSRA OVC020CB
     FM230900 19015KT P6SM VCTS SCT035CB BKN100
     FM231100 18012KT 5SM -RA BR BKN015
     FM231300 20015KT P6SM OVC025
     FM231700 23015G23KT P6SM SKC=

USA.gov is the U.S. government's official web portal to all federal, state and local government web resources and services.